Time;durP1;ratioP1;P1;durP2;ratioP2;P2;SDS_P1;SDS_P2;PMS_P1;PMS_P2;Temp;Humidity;BMP_temperature;BMP_pressure;BME280_temperature;BME280_humidity;BME280_pressure;Samples;Min_cycle;Max_cycle;Signal;HPM_P1;HPM_P2
2024/03/03 10:15:45;;;;;;;1.50;0.90;;;14.60;98.20;;;;;;4863074;29;20482;-80
2024/03/03 10:18:14;;;;;;;1.50;0.90;;;14.60;98.20;;;;;;4837230;29;20506;-81
2024/03/03 10:20:42;;;;;;;1.50;0.90;;;14.60;98.20;;;;;;4846273;29;20567;-81
2024/03/03 10:23:31;;;;;;;1.50;1.00;;;14.80;98.20;;;;;;4848788;29;20483;-81
2024/03/03 10:26:33;;;;;;;;;;;;;;;;;;;;;
2024/03/03 10:29:04;;;;;;;1.50;0.90;;;15.10;98.20;;;;;;4854957;29;20467;-80
2024/03/03 10:31:59;;;;;;;1.50;0.90;;;15.20;98.20;;;;;;4845491;29;20741;-81
2024/03/03 10:34:29;;;;;;;1.53;1.10;;;15.60;98.20;;;;;;4850281;29;20634;-80
2024/03/03 10:37:11;;;;;;;12.10;3.00;;;15.90;98.20;;;;;;4844181;29;20490;-80
2024/03/03 10:39:40;;;;;;;1.50;0.90;;;16.10;98.20;;;;;;4853180;29;20460;-79
2024/03/03 10:42:15;;;;;;;3.63;1.40;;;16.30;98.20;;;;;;4837492;29;20489;-80
2024/03/03 10:44:45;;;;;;;1.50;0.97;;;16.60;98.20;;;;;;4844756;29;20574;-80
2024/03/03 10:47:15;;;;;;;1.53;1.00;;;16.90;97.30;;;;;;4840184;29;20479;-82
2024/03/03 10:55:15;;;;;;;1.50;1.00;;;17.50;94.90;;;;;;4867958;29;20496;-82
2024/03/03 10:57:43;;;;;;;1.53;0.90;;;17.30;94.60;;;;;;4845642;29;20531;-81
2024/03/03 11:00:19;;;;;;;1.53;1.00;;;17.20;94.50;;;;;;4844570;29;20471;-81
2024/03/03 11:03:09;;;;;;;1.50;0.90;;;16.90;95.00;;;;;;4849836;29;20551;-82
2024/03/03 11:08:27;;;;;;;1.50;1.00;;;16.40;97.00;;;;;;4833815;29;20483;-82
2024/03/03 11:11:01;;;;;;;1.50;1.00;;;16.50;98.20;;;;;;4843142;29;21169;-82
2024/03/03 11:13:35;;;;;;;1.50;0.90;;;16.50;98.20;;;;;;4848108;29;20532;-83
2024/03/03 11:16:05;;;;;;;1.53;1.00;;;16.60;98.20;;;;;;4844932;29;20959;-82
2024/03/03 11:18:37;;;;;;;1.50;1.00;;;16.70;97.90;;;;;;4858080;29;20522;-82
2024/03/03 11:21:09;;;;;;;1.50;1.00;;;16.90;97.30;;;;;;4845082;29;20976;-82
2024/03/03 11:23:45;;;;;;;1.60;1.00;;;17.00;96.90;;;;;;4857204;29;20464;-81
2024/03/03 11:26:20;;;;;;;1.50;0.90;;;17.10;96.70;;;;;;4842102;29;20490;-82
2024/03/03 11:28:53;;;;;;;1.53;1.00;;;17.20;96.00;;;;;;4848486;29;20511;-82
2024/03/03 11:31:22;;;;;;;1.50;0.90;;;17.10;94.70;;;;;;4841947;29;20482;-81
2024/03/03 11:33:51;;;;;;;1.70;1.10;;;17.10;95.10;;;;;;4862970;29;20475;-81
2024/03/03 11:36:18;;;;;;;1.50;0.90;;;17.20;95.70;;;;;;4838850;29;20488;-81
2024/03/03 11:38:45;;;;;;;1.53;0.93;;;17.40;96.10;;;;;;4849485;29;20496;-83
2024/03/03 11:41:12;;;;;;;1.50;1.00;;;17.70;96.10;;;;;;4845574;29;20498;-81
2024/03/03 11:43:40;;;;;;;1.50;0.90;;;18.00;95.10;;;;;;4860067;29;20468;-82
2024/03/03 11:46:07;;;;;;;1.50;0.90;;;18.00;92.80;;;;;;4840804;29;20997;-82
2024/03/03 11:48:34;;;;;;;1.57;0.97;;;18.00;92.60;;;;;;4856202;29;20695;-79
2024/03/03 11:51:29;;;;;;;1.50;0.90;;;17.80;93.50;;;;;;4840942;29;20464;-80
2024/03/03 11:54:00;;;;;;;1.50;1.00;;;17.90;94.80;;;;;;4858344;29;20692;-79
2024/03/03 11:56:30;;;;;;;1.60;1.10;;;18.00;93.30;;;;;;4837357;29;20759;-80
2024/03/03 11:58:57;;;;;;;1.50;1.00;;;18.00;94.00;;;;;;4851031;29;20518;-79
2024/03/03 12:01:24;;;;;;;1.53;1.00;;;18.00;93.70;;;;;;4836365;29;20475;-79
2024/03/03 12:03:53;;;;;;;1.50;0.90;;;17.90;93.70;;;;;;4849376;29;20472;-80
2024/03/03 12:06:21;;;;;;;1.50;0.90;;;18.00;94.30;;;;;;4845552;29;20490;-80
2024/03/03 12:08:55;;;;;;;1.50;1.00;;;18.10;94.40;;;;;;4860760;29;20473;-80
2024/03/03 12:11:23;;;;;;;1.50;0.90;;;18.30;94.40;;;;;;4841897;29;20494;-81
2024/03/03 12:13:57;;;;;;;1.57;0.90;;;18.50;94.00;;;;;;4855913;29;20553;-80
2024/03/03 12:16:24;;;;;;;1.50;0.90;;;18.80;93.90;;;;;;4845480;29;20495;-80
2024/03/03 12:18:51;;;;;;;1.50;0.90;;;19.10;92.60;;;;;;4855886;29;21581;-79
2024/03/03 12:21:20;;;;;;;1.50;0.90;;;19.40;91.50;;;;;;4830058;29;20940;-79
2024/03/03 12:23:49;;;;;;;1.50;0.90;;;19.60;91.20;;;;;;4843707;29;20472;-79
2024/03/03 12:26:17;;;;;;;1.53;0.90;;;19.70;91.10;;;;;;4840602;29;20490;-79
2024/03/03 12:28:44;;;;;;;1.57;0.90;;;19.90;90.50;;;;;;4855646;29;21288;-80
2024/03/03 12:31:11;;;;;;;1.53;0.90;;;20.00;90.20;;;;;;4836958;29;20501;-80
2024/03/03 12:33:40;;;;;;;1.50;0.90;;;20.20;90.40;;;;;;4856474;29;20472;-80
2024/03/03 12:36:08;;;;;;;1.70;1.20;;;20.40;91.20;;;;;;4842574;29;20611;-80
2024/03/03 12:38:35;;;;;;;1.50;0.90;;;20.50;89.80;;;;;;4849925;29;20520;-79
2024/03/03 12:41:05;;;;;;;1.50;0.90;;;20.60;88.90;;;;;;4846811;29;20477;-79
2024/03/03 12:43:33;;;;;;;1.50;0.90;;;20.80;89.60;;;;;;4860187;29;20472;-81
2024/03/03 12:46:00;;;;;;;1.53;0.90;;;20.90;88.60;;;;;;4839492;29;20852;-80
2024/03/03 12:48:28;;;;;;;1.53;0.90;;;21.10;88.40;;;;;;4856069;29;20555;-80
2024/03/03 12:50:56;;;;;;;1.50;0.90;;;21.10;88.10;;;;;;4833851;29;20482;-80
2024/03/03 12:53:24;;;;;;;2.27;1.40;;;21.30;87.50;;;;;;4844918;29;20568;-79
2024/03/03 12:55:51;;;;;;;1.50;0.90;;;21.30;86.80;;;;;;4833711;29;20480;-80
2024/03/03 12:58:20;;;;;;;1.57;0.90;;;21.30;87.20;;;;;;4846255;29;20503;-79
2024/03/03 13:00:48;;;;;;;1.50;0.90;;;21.30;78.80;;;;;;4834292;29;20472;-80
2024/03/03 13:03:15;;;;;;;1.50;0.90;;;21.30;78.90;;;;;;4847960;29;20495;-80
2024/03/03 13:05:42;;;;;;;1.50;0.90;;;21.20;79.90;;;;;;4839000;29;20583;-80
2024/03/03 13:08:12;;;;;;;1.50;0.90;;;21.20;80.00;;;;;;4840327;29;20506;-80
2024/03/03 13:10:40;;;;;;;1.50;0.90;;;21.10;79.20;;;;;;4847385;29;20467;-79
2024/03/03 13:13:08;;;;;;;1.50;0.90;;;21.10;79.90;;;;;;4850516;29;20491;-79
2024/03/03 13:15:37;;;;;;;1.50;0.90;;;21.10;80.50;;;;;;4844306;29;20493;-79
2024/03/03 13:18:07;;;;;;;1.50;0.90;;;21.20;80.40;;;;;;4847997;29;20498;-79
2024/03/03 13:20:35;;;;;;;1.50;0.87;;;21.30;81.00;;;;;;4842332;29;20468;-80
2024/03/03 13:23:11;;;;;;;1.50;0.90;;;21.30;79.60;;;;;;4836453;29;21097;-80
2024/03/03 13:25:39;;;;;;;1.50;0.90;;;21.30;80.20;;;;;;4843217;29;20562;-79
2024/03/03 13:28:07;;;;;;;1.50;0.90;;;21.20;78.90;;;;;;4834903;29;20490;-80
2024/03/03 13:30:36;;;;;;;1.50;0.90;;;21.10;78.80;;;;;;4845597;29;20548;-79
2024/03/03 13:33:03;;;;;;;1.50;0.90;;;21.00;80.50;;;;;;4847685;29;20607;-80
2024/03/03 13:35:32;;;;;;;1.50;0.90;;;21.00;81.00;;;;;;4842597;29;20471;-80
2024/03/03 13:37:59;;;;;;;1.50;0.90;;;21.00;80.10;;;;;;4835980;29;21022;-81
2024/03/03 13:40:26;;;;;;;1.50;0.90;;;21.00;79.70;;;;;;4845463;29;20990;-79
2024/03/03 13:42:54;;;;;;;1.50;0.90;;;20.90;78.50;;;;;;4835813;29;20496;-80
2024/03/03 13:45:21;;;;;;;1.50;0.90;;;20.90;79.50;;;;;;4845685;29;20501;-79
2024/03/03 13:47:49;;;;;;;1.50;0.90;;;20.90;80.30;;;;;;4850547;29;20543;-79
2024/03/03 13:50:16;;;;;;;1.50;0.90;;;21.00;80.80;;;;;;4844833;29;21036;-80
2024/03/03 13:52:43;;;;;;;1.50;0.90;;;21.10;79.60;;;;;;4839649;29;20496;-80
2024/03/03 13:55:10;;;;;;;1.50;0.90;;;21.10;80.10;;;;;;4847482;29;20594;-81
2024/03/03 13:57:37;;;;;;;1.50;0.90;;;21.10;79.70;;;;;;4837739;29;20491;-80
2024/03/03 14:00:14;;;;;;;1.50;0.90;;;21.00;79.90;;;;;;4851713;29;20779;-80
2024/03/03 14:02:44;;;;;;;1.50;0.90;;;21.10;80.60;;;;;;4853873;29;20490;-81
2024/03/03 14:05:16;;;;;;;1.50;0.90;;;21.10;80.20;;;;;;4846569;29;20467;-80
2024/03/03 14:07:43;;;;;;;1.50;0.90;;;21.10;80.30;;;;;;4839018;29;20504;-80
2024/03/03 14:10:11;;;;;;;1.50;0.90;;;21.10;82.20;;;;;;4852513;29;20475;-81
2024/03/03 14:12:38;;;;;;;1.50;0.90;;;21.20;82.10;;;;;;4839508;29;20490;-79
2024/03/03 14:15:06;;;;;;;1.50;0.90;;;21.20;80.80;;;;;;4844874;29;20556;-79
2024/03/03 14:17:33;;;;;;;1.50;0.90;;;21.30;81.00;;;;;;4840777;29;20540;-79
2024/03/03 14:20:00;;;;;;;1.50;0.90;;;21.30;80.80;;;;;;4845213;29;20495;-78
2024/03/03 14:22:29;;;;;;;1.50;0.90;;;21.30;81.60;;;;;;4841698;29;20504;-80
2024/03/03 14:24:56;;;;;;;1.50;0.90;;;21.30;80.50;;;;;;4847034;29;21253;-79
2024/03/03 14:27:24;;;;;;;1.50;0.90;;;21.30;80.20;;;;;;4840289;29;20498;-80
2024/03/03 14:29:51;;;;;;;1.50;0.90;;;21.20;80.20;;;;;;4853667;29;20523;-80
2024/03/03 14:32:18;;;;;;;1.50;0.90;;;21.10;80.10;;;;;;4843462;29;20615;-80
2024/03/03 14:34:45;;;;;;;1.50;0.90;;;21.10;81.90;;;;;;4848822;29;20460;-80
2024/03/03 14:37:14;;;;;;;1.50;1.00;;;21.00;80.00;;;;;;4839050;29;20593;-79
2024/03/03 14:39:42;;;;;;;1.50;0.90;;;20.90;81.60;;;;;;4848737;29;20499;-80
2024/03/03 14:42:09;;;;;;;1.50;0.90;;;20.90;81.20;;;;;;4840289;29;20523;-80
2024/03/03 14:44:36;;;;;;;1.50;0.90;;;20.80;81.00;;;;;;4848413;29;20477;-80
2024/03/03 14:47:03;;;;;;;1.50;0.90;;;20.90;81.30;;;;;;4845065;29;20491;-80
2024/03/03 14:49:30;;;;;;;1.50;1.00;;;20.90;81.70;;;;;;4848744;29;20489;-80
2024/03/03 14:51:58;;;;;;;1.50;0.90;;;20.90;83.30;;;;;;4843013;29;20516;-80
2024/03/03 14:54:25;;;;;;;1.50;0.90;;;20.80;79.90;;;;;;4850200;29;20845;-79
2024/03/03 14:56:56;;;;;;;1.50;0.90;;;20.70;82.30;;;;;;4845929;29;20494;-79
2024/03/03 14:59:23;;;;;;;1.50;0.90;;;20.70;81.70;;;;;;4851550;29;20491;-79
2024/03/03 15:01:50;;;;;;;1.50;0.90;;;20.70;82.50;;;;;;4845379;29;20538;-79
2024/03/03 15:04:17;;;;;;;1.50;0.90;;;20.60;81.70;;;;;;4855740;29;20720;-79
2024/03/03 15:06:44;;;;;;;1.50;0.90;;;20.60;81.50;;;;;;4845212;29;20499;-78
2024/03/03 15:09:12;;;;;;;1.50;0.90;;;20.50;80.80;;;;;;4855658;29;20475;-80
2024/03/03 15:11:39;;;;;;;2.10;1.47;;;20.40;81.90;;;;;;4845277;29;20490;-79
2024/03/03 15:14:07;;;;;;;1.50;0.90;;;20.40;82.60;;;;;;4854881;29;21178;-79
2024/03/03 15:16:34;;;;;;;1.50;0.90;;;20.40;81.00;;;;;;4839694;29;20499;-79
2024/03/03 15:19:03;;;;;;;1.50;0.90;;;20.30;81.80;;;;;;4854232;29;20510;-79
2024/03/03 15:21:30;;;;;;;1.50;0.90;;;20.20;82.00;;;;;;4840887;29;20505;-79
2024/03/03 15:23:57;;;;;;;1.50;0.90;;;20.10;82.20;;;;;;4853932;29;20478;-79
2024/03/03 15:26:24;;;;;;;1.50;0.90;;;20.00;82.80;;;;;;4837054;29;20760;-79
2024/03/03 15:28:51;;;;;;;1.50;0.90;;;20.00;83.10;;;;;;4847799;29;20471;-80
2024/03/03 15:31:19;;;;;;;1.50;0.90;;;19.90;83.30;;;;;;4840575;29;20558;-80
2024/03/03 15:33:47;;;;;;;1.50;0.90;;;19.90;84.80;;;;;;4856731;29;20467;-80
2024/03/03 15:36:14;;;;;;;1.50;0.90;;;19.80;84.10;;;;;;4839443;29;20814;-80
2024/03/03 15:38:41;;;;;;;1.50;0.90;;;19.70;84.30;;;;;;4852979;29;20602;-80
2024/03/03 15:41:08;;;;;;;1.50;0.90;;;19.70;85.50;;;;;;4836023;29;20492;-79
2024/03/03 15:43:35;;;;;;;1.50;0.90;;;19.70;85.70;;;;;;4849144;29;20503;-79
2024/03/03 15:46:02;;;;;;;1.50;0.90;;;19.70;84.90;;;;;;4839704;29;20536;-79
2024/03/03 15:48:30;;;;;;;1.50;0.90;;;19.60;83.60;;;;;;4845870;29;20514;-79
2024/03/03 15:50:57;;;;;;;1.50;0.90;;;19.60;84.40;;;;;;4835416;29;21201;-80
2024/03/03 15:53:24;;;;;;;1.50;0.90;;;19.40;84.60;;;;;;4846971;29;20633;-80
2024/03/03 15:55:51;;;;;;;1.50;0.90;;;19.30;84.70;;;;;;4836768;29;20890;-80
2024/03/03 15:58:18;;;;;;;1.50;0.90;;;19.20;84.70;;;;;;4857807;29;20499;-81
2024/03/03 16:00:45;;;;;;;1.50;0.90;;;19.10;85.20;;;;;;4844249;29;20948;-80
2024/03/03 16:03:12;;;;;;;1.50;0.90;;;19.00;85.20;;;;;;4851359;29;20544;-80
2024/03/03 16:05:40;;;;;;;1.50;1.00;;;18.80;85.40;;;;;;4847775;29;20476;-80
2024/03/03 16:08:09;;;;;;;1.50;0.90;;;18.70;86.00;;;;;;4850376;29;20503;-80
2024/03/03 16:10:40;;;;;;;1.50;0.90;;;18.70;87.30;;;;;;4845468;29;20842;-80
2024/03/03 16:13:07;;;;;;;1.50;0.90;;;18.60;86.60;;;;;;4840305;29;21694;-79
2024/03/03 16:15:34;;;;;;;1.50;0.97;;;18.50;87.10;;;;;;4843808;29;20479;-79
2024/03/03 16:18:02;;;;;;;1.50;0.90;;;18.40;86.80;;;;;;4838553;29;20524;-79
2024/03/03 16:20:29;;;;;;;1.50;1.00;;;18.30;87.30;;;;;;4846046;29;20506;-80
2024/03/03 16:22:58;;;;;;;1.50;0.90;;;18.20;87.90;;;;;;4841907;29;20498;-80
2024/03/03 16:29:38;;;;;;;;;;;;;;;;;;;;;
2024/03/03 16:51:55;;;;;;;1.50;1.00;;;17.00;91.50;;;;;;4964539;23;20506;-80
2024/03/03 17:05:39;;;;;;;1.50;1.00;;;16.50;94.10;;;;;;4758084;30;20966;-79
2024/03/03 17:11:15;;;;;;;1.50;1.00;;;16.20;95.20;;;;;;4866255;29;20493;-79
2024/03/03 17:13:42;;;;;;;1.53;1.00;;;16.10;95.50;;;;;;4883763;29;20482;-80
2024/03/03 17:16:09;;;;;;;1.50;1.00;;;16.00;95.90;;;;;;4868783;29;20504;-80
2024/03/03 17:18:37;;;;;;;1.50;1.00;;;15.90;96.50;;;;;;4878800;29;20466;-79
2024/03/03 17:21:06;;;;;;;1.50;1.00;;;15.70;96.60;;;;;;4865223;29;20459;-79
2024/03/03 17:23:33;;;;;;;1.50;1.03;;;15.60;97.50;;;;;;4881176;29;20455;-79
2024/03/03 17:26:00;;;;;;;1.50;0.97;;;15.50;97.80;;;;;;4843266;29;20567;-78
2024/03/03 17:28:27;;;;;;;1.50;1.00;;;15.40;98.20;;;;;;4864707;29;21068;-79
2024/03/03 17:30:54;;;;;;;1.50;1.00;;;15.30;98.20;;;;;;4841590;29;20487;-80
2024/03/03 17:33:21;;;;;;;1.50;0.90;;;15.20;98.20;;;;;;4864350;29;20507;-80
2024/03/03 17:35:48;;;;;;;1.50;1.00;;;15.10;98.20;;;;;;4843017;29;20913;-80
2024/03/03 17:38:18;;;;;;;1.50;1.00;;;15.00;98.20;;;;;;4864292;29;20480;-80
2024/03/03 17:40:44;;;;;;;1.60;1.20;;;14.90;98.20;;;;;;4853766;29;20499;-80
2024/03/03 17:43:11;;;;;;;1.57;1.00;;;14.80;98.20;;;;;;4842002;29;20551;-80
2024/03/03 17:45:38;;;;;;;1.50;1.00;;;14.70;98.20;;;;;;4853964;29;20563;-79
2024/03/03 17:48:06;;;;;;;1.50;1.10;;;14.70;98.20;;;;;;4855469;29;20498;-79
2024/03/03 17:50:33;;;;;;;1.50;1.10;;;14.60;98.20;;;;;;4852280;29;20560;-79
2024/03/03 17:53:00;;;;;;;1.50;1.00;;;14.50;98.20;;;;;;4854359;29;20482;-79
2024/03/03 17:55:29;;;;;;;1.50;1.00;;;14.50;98.20;;;;;;4851655;29;20487;-79
2024/03/03 17:57:55;;;;;;;1.53;1.00;;;14.40;98.20;;;;;;4855262;29;20502;-80
2024/03/03 18:00:23;;;;;;;1.50;1.07;;;14.30;98.20;;;;;;4853172;29;20871;-80
2024/03/03 18:02:50;;;;;;;1.50;0.90;;;14.20;98.20;;;;;;4854853;29;20491;-79
2024/03/03 18:05:17;;;;;;;1.53;1.00;;;14.20;98.20;;;;;;4853169;29;20479;-80
2024/03/03 18:07:43;;;;;;;1.53;0.90;;;14.10;98.20;;;;;;4856073;29;20590;-79
2024/03/03 18:10:10;;;;;;;1.50;1.00;;;14.00;98.20;;;;;;4851761;29;20577;-79
2024/03/03 18:12:39;;;;;;;1.50;1.00;;;13.90;98.20;;;;;;4854765;29;20490;-80
2024/03/03 18:15:07;;;;;;;1.50;1.10;;;13.90;98.20;;;;;;4849998;29;20591;-79
2024/03/03 18:17:36;;;;;;;1.57;1.10;;;13.80;98.20;;;;;;4853098;29;20566;-78
2024/03/03 18:20:05;;;;;;;1.53;1.00;;;13.70;98.20;;;;;;4853052;29;20494;-79
2024/03/03 18:22:33;;;;;;;1.53;1.10;;;13.60;98.20;;;;;;4854293;29;20604;-79
2024/03/03 18:24:58;;;;;;;1.50;1.00;;;13.60;98.20;;;;;;4852715;29;20471;-79
2024/03/03 18:27:25;;;;;;;1.50;1.00;;;13.50;98.20;;;;;;4851477;29;21274;-79
2024/03/03 18:29:54;;;;;;;1.50;1.00;;;13.50;98.20;;;;;;4854043;29;20800;-78
2024/03/03 18:32:21;;;;;;;1.53;1.00;;;13.40;98.20;;;;;;4856165;29;20589;-79
2024/03/03 18:34:48;;;;;;;1.50;1.10;;;13.40;98.20;;;;;;4855622;29;20564;-80
2024/03/03 18:37:15;;;;;;;1.57;1.10;;;13.40;98.20;;;;;;4853402;29;20508;-80
2024/03/03 18:39:41;;;;;;;1.50;1.07;;;13.30;98.20;;;;;;4857958;29;20503;-79
2024/03/03 18:42:11;;;;;;;1.57;1.10;;;13.30;98.20;;;;;;4854015;29;20490;-80
2024/03/03 18:44:38;;;;;;;1.53;1.03;;;13.30;98.20;;;;;;4857588;29;20471;-80
2024/03/03 18:47:07;;;;;;;1.50;1.10;;;13.20;98.20;;;;;;4852889;29;20532;-80
2024/03/03 18:49:35;;;;;;;1.53;1.10;;;13.10;98.20;;;;;;4869936;29;20486;-78
2024/03/03 18:52:02;;;;;;;1.50;1.10;;;13.10;98.20;;;;;;4857904;29;20937;-79
2024/03/03 18:54:29;;;;;;;1.50;1.10;;;13.00;98.20;;;;;;4854024;29;20675;-79
2024/03/03 18:56:56;;;;;;;1.50;1.00;;;13.00;98.20;;;;;;4847157;29;20494;-80
2024/03/03 18:59:23;;;;;;;1.53;1.10;;;12.90;98.20;;;;;;4856368;29;20471;-79
2024/03/03 19:01:54;;;;;;;1.53;1.10;;;12.90;98.20;;;;;;4850410;29;20595;-80
2024/03/03 19:04:22;;;;;;;1.50;1.00;;;12.90;98.20;;;;;;4856131;29;20578;-79
2024/03/03 19:06:52;;;;;;;1.50;1.10;;;12.80;98.20;;;;;;4848086;29;21044;-79
2024/03/03 19:09:19;;;;;;;1.50;1.00;;;12.80;98.20;;;;;;4855245;29;20560;-80
2024/03/03 19:11:46;;;;;;;1.53;1.00;;;12.70;98.20;;;;;;4850717;29;20502;-79
2024/03/03 19:14:13;;;;;;;1.50;1.10;;;12.70;98.20;;;;;;4856965;29;20480;-80
2024/03/03 19:16:40;;;;;;;1.60;1.20;;;12.60;98.20;;;;;;4852226;29;21092;-79
2024/03/03 19:19:07;;;;;;;1.50;1.10;;;12.60;98.20;;;;;;4861798;29;20482;-80
2024/03/03 19:21:38;;;;;;;1.50;1.10;;;12.60;98.20;;;;;;4849725;29;20503;-80
2024/03/03 19:24:07;;;;;;;1.50;1.00;;;12.60;98.20;;;;;;4856853;29;21118;-79
2024/03/03 19:26:34;;;;;;;1.50;1.00;;;12.60;98.20;;;;;;4849562;29;20507;-79
2024/03/03 19:29:02;;;;;;;1.53;1.00;;;12.50;98.20;;;;;;4859077;29;20471;-79
2024/03/03 19:31:29;;;;;;;1.53;1.00;;;12.50;98.20;;;;;;4849296;29;20557;-79
2024/03/03 19:33:57;;;;;;;1.50;1.00;;;12.50;98.20;;;;;;4860178;29;20475;-79
2024/03/03 19:36:24;;;;;;;1.50;1.00;;;12.40;98.20;;;;;;4848231;29;20533;-80
2024/03/03 19:38:54;;;;;;;1.50;1.00;;;12.40;98.20;;;;;;4861898;29;20518;-81
2024/03/03 19:41:22;;;;;;;1.53;1.00;;;12.40;98.20;;;;;;4849709;29;20537;-80
2024/03/03 19:43:49;;;;;;;1.53;1.10;;;12.30;98.20;;;;;;4863832;29;20478;-80
2024/03/03 19:46:16;;;;;;;1.50;1.00;;;12.30;98.20;;;;;;4846901;29;20607;-79
2024/03/03 19:48:44;;;;;;;1.60;1.10;;;12.30;98.20;;;;;;4867198;29;20697;-79
2024/03/03 19:51:18;;;;;;;1.50;1.00;;;12.20;98.20;;;;;;4847143;29;21346;-79
2024/03/03 19:53:45;;;;;;;1.60;1.13;;;12.20;98.20;;;;;;4860165;29;20482;-79
2024/03/03 19:56:14;;;;;;;1.60;1.20;;;12.20;98.20;;;;;;4846270;29;20491;-79
2024/03/03 19:58:40;;;;;;;1.50;1.10;;;12.10;98.20;;;;;;4862651;29;20590;-80
2024/03/03 20:01:07;;;;;;;1.53;1.00;;;12.10;98.20;;;;;;4845870;29;21281;-80
2024/03/03 20:03:34;;;;;;;1.50;1.00;;;12.10;98.20;;;;;;4865886;29;20471;-79
2024/03/03 20:06:03;;;;;;;1.50;1.07;;;12.10;98.20;;;;;;4848966;29;20478;-78
2024/03/03 20:08:30;;;;;;;1.50;1.00;;;12.00;98.20;;;;;;4869321;29;20483;-78
2024/03/03 20:10:58;;;;;;;1.53;1.10;;;12.00;98.20;;;;;;4844320;29;20471;-79
2024/03/03 20:13:26;;;;;;;1.50;0.93;;;12.00;98.20;;;;;;4866868;29;20550;-79
2024/03/03 20:15:53;;;;;;;1.50;1.10;;;12.00;98.20;;;;;;4844150;29;20510;-80
2024/03/03 20:18:20;;;;;;;1.50;1.00;;;11.90;98.20;;;;;;4866285;29;20471;-81
2024/03/03 20:20:47;;;;;;;1.50;1.00;;;11.90;98.20;;;;;;4849568;29;20921;-80
2024/03/03 20:23:14;;;;;;;1.50;1.00;;;11.90;98.20;;;;;;4866511;29;20554;-79
2024/03/03 20:25:41;;;;;;;1.50;1.10;;;11.80;98.20;;;;;;4852223;29;20475;-80
2024/03/03 20:28:09;;;;;;;1.50;1.00;;;11.80;98.20;;;;;;4857070;29;20840;-80
2024/03/03 20:30:38;;;;;;;1.50;1.00;;;11.70;98.20;;;;;;4854301;29;20468;-80
2024/03/03 20:33:05;;;;;;;1.50;1.03;;;11.70;98.20;;;;;;4858572;29;20582;-80
2024/03/03 20:35:32;;;;;;;1.53;1.10;;;11.60;98.20;;;;;;4851616;29;20484;-79
2024/03/03 20:37:59;;;;;;;1.80;1.30;;;11.60;98.20;;;;;;4836791;29;20495;-80
2024/03/03 20:40:26;;;;;;;1.53;1.10;;;11.60;98.20;;;;;;4852545;29;20506;-79
2024/03/03 20:42:53;;;;;;;1.50;1.10;;;11.50;98.20;;;;;;4857615;29;20494;-80
2024/03/03 20:45:20;;;;;;;1.60;1.10;;;11.50;98.20;;;;;;4853874;29;20570;-79
2024/03/03 20:47:49;;;;;;;1.57;1.10;;;11.40;98.20;;;;;;4856966;29;20499;-79
2024/03/03 20:50:18;;;;;;;1.50;1.00;;;11.30;98.20;;;;;;4851401;29;20507;-79
2024/03/03 20:52:45;;;;;;;1.60;1.20;;;11.30;98.20;;;;;;4841130;29;20905;-79
2024/03/03 20:55:13;;;;;;;1.50;1.00;;;11.20;98.20;;;;;;4851799;29;20499;-79
2024/03/03 20:57:40;;;;;;;1.60;1.10;;;11.20;98.20;;;;;;4855425;29;20680;-79
2024/03/03 21:00:09;;;;;;;1.53;1.10;;;11.10;98.20;;;;;;4852194;29;20506;-79
2024/03/03 21:02:37;;;;;;;1.60;1.20;;;11.10;98.20;;;;;;4836897;29;20948;-80
2024/03/03 21:05:06;;;;;;;1.53;1.07;;;11.00;98.20;;;;;;4850323;29;20467;-79
2024/03/03 21:07:33;;;;;;;3.30;3.10;;;11.00;98.20;;;;;;4854651;29;21028;-79
2024/03/03 21:10:00;;;;;;;1.53;1.10;;;10.90;98.20;;;;;;4849812;29;20911;-79
2024/03/03 21:12:27;;;;;;;1.50;1.00;;;10.90;98.20;;;;;;4855675;29;20478;-79
2024/03/03 21:14:54;;;;;;;1.50;1.10;;;10.80;98.20;;;;;;4855320;29;20475;-80
2024/03/03 21:17:21;;;;;;;1.57;1.13;;;10.80;98.20;;;;;;4893994;23;20493;-80
2024/03/03 21:19:48;;;;;;;1.57;1.20;;;10.70;98.20;;;;;;4893186;29;20477;-77
2024/03/03 21:22:18;;;;;;;1.50;1.00;;;10.70;98.20;;;;;;4890463;29;20488;-80
2024/03/03 21:24:44;;;;;;;1.50;1.10;;;10.70;98.20;;;;;;4888690;29;20658;-80
2024/03/03 21:27:11;;;;;;;1.57;1.10;;;10.80;98.20;;;;;;4877784;29;20580;-79
2024/03/03 21:29:38;;;;;;;1.50;1.10;;;10.80;98.20;;;;;;4880157;29;20493;-79
2024/03/03 21:32:06;;;;;;;1.60;1.30;;;10.80;98.20;;;;;;4876291;29;20513;-78
2024/03/03 21:34:33;;;;;;;1.50;1.10;;;10.80;98.20;;;;;;4881876;29;20481;-81
2024/03/03 21:37:00;;;;;;;1.53;1.10;;;10.80;98.20;;;;;;4871169;29;20494;-80
2024/03/03 21:39:31;;;;;;;1.53;1.10;;;10.90;98.20;;;;;;4882480;29;20478;-81
2024/03/03 21:42:01;;;;;;;1.60;1.10;;;10.90;98.20;;;;;;4875851;29;20496;-78
2024/03/03 21:44:29;;;;;;;1.53;1.10;;;10.90;98.20;;;;;;4886437;29;20506;-79
2024/03/03 21:46:56;;;;;;;1.53;1.10;;;10.90;98.20;;;;;;4877021;29;20545;-80
2024/03/03 21:49:23;;;;;;;1.53;1.10;;;11.00;98.20;;;;;;4885791;29;20549;-81
2024/03/03 21:51:50;;;;;;;2.33;1.93;;;11.00;98.20;;;;;;4877097;29;20486;-79
2024/03/03 21:54:16;;;;;;;1.50;1.10;;;10.90;98.20;;;;;;4884904;29;20479;-79
2024/03/03 21:56:45;;;;;;;1.57;1.00;;;10.90;98.20;;;;;;4879130;29;20490;-81
2024/03/03 21:59:12;;;;;;;1.50;1.10;;;10.90;98.20;;;;;;4892568;29;20547;-81
2024/03/03 22:01:40;;;;;;;1.50;1.00;;;11.00;98.20;;;;;;4873022;29;20984;-81
2024/03/03 22:04:06;;;;;;;1.57;1.10;;;10.90;98.20;;;;;;4883571;29;20514;-81
2024/03/03 22:06:33;;;;;;;3.73;3.43;;;10.90;98.20;;;;;;4872296;29;20493;-80
2024/03/03 22:09:00;;;;;;;1.50;1.10;;;10.90;98.20;;;;;;4885469;29;20482;-80
2024/03/03 22:11:27;;;;;;;1.57;1.10;;;10.90;98.20;;;;;;4871646;29;20483;-80
2024/03/03 22:13:55;;;;;;;1.53;1.10;;;10.90;98.20;;;;;;4886584;29;20466;-79
2024/03/03 22:16:22;;;;;;;1.50;1.10;;;10.90;98.20;;;;;;4874254;29;20496;-80
2024/03/03 22:18:49;;;;;;;1.60;1.00;;;10.90;98.20;;;;;;4891636;29;20509;-79
2024/03/03 22:21:16;;;;;;;4.47;2.80;;;10.90;98.20;;;;;;4868247;29;20498;-79
2024/03/03 22:23:43;;;;;;;1.53;1.20;;;10.90;98.20;;;;;;4879422;29;20553;-80
2024/03/03 22:26:09;;;;;;;1.50;1.10;;;10.90;98.20;;;;;;4863905;29;21183;-81
2024/03/03 22:28:36;;;;;;;1.57;1.10;;;10.90;98.20;;;;;;4875975;29;20855;-80
2024/03/03 22:31:05;;;;;;;1.50;1.00;;;10.90;98.20;;;;;;4868493;29;20480;-78
2024/03/03 22:33:31;;;;;;;1.50;1.10;;;10.90;98.20;;;;;;4875908;29;20477;-78
2024/03/03 22:35:58;;;;;;;1.50;1.03;;;10.90;98.20;;;;;;4867355;29;20494;-80
2024/03/03 22:38:25;;;;;;;1.50;1.00;;;10.90;98.20;;;;;;4876116;29;20466;-80
2024/03/03 22:40:52;;;;;;;1.53;1.10;;;10.90;98.20;;;;;;4870063;29;20494;-80
2024/03/03 22:43:19;;;;;;;1.50;1.10;;;10.80;98.20;;;;;;4877397;29;20476;-80
2024/03/03 22:45:53;;;;;;;1.50;1.20;;;10.80;98.20;;;;;;4876939;29;20473;-77
2024/03/03 22:48:21;;;;;;;1.50;1.10;;;10.80;98.20;;;;;;4885049;29;20521;-81
2024/03/03 22:50:48;;;;;;;1.50;1.00;;;10.80;98.20;;;;;;4873925;29;20474;-80
2024/03/03 22:53:15;;;;;;;1.60;1.37;;;10.70;98.20;;;;;;4896089;29;20466;-80
2024/03/03 22:55:41;;;;;;;1.60;1.27;;;10.70;98.20;;;;;;4882314;29;20466;-80
2024/03/03 22:58:08;;;;;;;1.50;1.10;;;10.70;98.20;;;;;;4888562;29;20486;-80
2024/03/03 23:00:38;;;;;;;1.60;1.37;;;10.70;98.20;;;;;;4883916;29;20476;-78
2024/03/03 23:03:05;;;;;;;1.53;1.00;;;10.70;98.20;;;;;;4886295;29;20497;-79
2024/03/03 23:05:34;;;;;;;1.60;1.10;;;10.70;98.20;;;;;;4882044;29;20470;-78
2024/03/03 23:08:01;;;;;;;1.50;1.10;;;10.70;98.20;;;;;;4885946;29;20504;-79
2024/03/03 23:10:27;;;;;;;1.57;1.10;;;10.70;98.20;;;;;;4882221;29;20470;-79
2024/03/03 23:12:54;;;;;;;1.90;1.30;;;10.60;98.20;;;;;;4889222;29;20493;-79
2024/03/03 23:15:22;;;;;;;1.60;1.10;;;10.60;98.20;;;;;;4883138;29;20466;-79
2024/03/03 23:17:49;;;;;;;1.70;1.40;;;10.60;98.20;;;;;;4886770;29;20568;-79
2024/03/03 23:20:15;;;;;;;1.50;1.10;;;10.60;98.20;;;;;;4882327;29;21186;-80
2024/03/03 23:22:44;;;;;;;1.50;1.10;;;10.60;98.20;;;;;;4900111;29;20508;-80
2024/03/03 23:25:10;;;;;;;1.53;1.10;;;10.50;98.20;;;;;;4883336;29;20485;-80
2024/03/03 23:27:37;;;;;;;2.50;2.30;;;10.50;98.20;;;;;;4885430;29;20528;-79
2024/03/03 23:30:06;;;;;;;1.60;1.30;;;10.50;98.20;;;;;;4883155;29;20529;-79
2024/03/03 23:32:32;;;;;;;1.50;1.10;;;10.50;98.20;;;;;;4885884;29;20822;-79
2024/03/03 23:34:59;;;;;;;1.60;1.20;;;10.50;98.20;;;;;;4882404;29;20635;-80
2024/03/03 23:37:26;;;;;;;1.60;1.20;;;10.50;98.20;;;;;;4885867;29;20485;-79
2024/03/03 23:39:54;;;;;;;1.57;1.10;;;10.50;98.20;;;;;;4883095;29;20557;-79
2024/03/03 23:42:22;;;;;;;1.57;1.17;;;10.40;98.20;;;;;;4882709;29;20917;-79
2024/03/03 23:44:49;;;;;;;1.53;1.10;;;10.40;98.20;;;;;;4881864;29;20718;-79
2024/03/03 23:47:16;;;;;;;1.53;1.10;;;10.40;98.20;;;;;;4881922;29;20478;-78
2024/03/03 23:49:43;;;;;;;1.53;1.10;;;10.40;98.20;;;;;;4887129;29;20484;-79
2024/03/03 23:52:10;;;;;;;1.50;1.10;;;10.40;98.20;;;;;;4884214;29;20520;-80
2024/03/03 23:54:37;;;;;;;1.50;1.10;;;10.40;98.20;;;;;;4887739;29;20480;-79